createdAt,value
2022-08-20T00:00:23.579Z,97522.84
2022-08-20T00:03:03.279Z,97518.44
2022-08-20T00:05:39.552Z,97524.56
2022-08-20T00:08:09.780Z,97536.19
2022-08-20T00:10:42.931Z,97534.09
2022-08-20T00:13:18.287Z,97539.25
2022-08-20T00:15:48.429Z,97541.19
2022-08-20T00:18:17.811Z,97535.09
2022-08-20T00:20:51.324Z,97537.03
2022-08-20T00:23:21.714Z,97533.97
2022-08-20T00:25:52.426Z,97536.75
2022-08-20T00:28:21.709Z,97539.53
2022-08-20T00:30:51.035Z,97544.81
2022-08-20T00:33:24.838Z,97539.25
2022-08-20T00:35:57.389Z,97549.56
2022-08-20T00:38:27.428Z,97561.22
2022-08-20T00:40:58.966Z,97563.31
2022-08-20T00:43:39.084Z,97566.91
2022-08-20T00:46:13.010Z,97560.94
2022-08-20T00:48:45.073Z,97566.50
2022-08-20T00:51:29.882Z,97566.91
2022-08-20T00:54:16.680Z,97565.41
2022-08-20T00:56:48.725Z,97569.72
2022-08-20T00:59:24.256Z,97575.97
2022-08-20T01:01:55.697Z,97571.78
2022-08-20T01:04:32.400Z,97573.16
2022-08-20T01:07:02.628Z,97574.56
2022-08-20T01:09:50.329Z,97584.28
2022-08-20T01:12:21.459Z,97585.69
2022-08-20T01:14:50.605Z,97590.28
2022-08-20T01:17:24.681Z,97597.28
2022-08-20T01:20:08.894Z,97597.13
2022-08-20T01:23:19.170Z,97601.00
2022-08-20T01:25:55.707Z,97602.09
2022-08-20T01:28:29.378Z,97601.31
2022-08-20T01:30:58.841Z,97604.47
2022-08-20T01:33:28.034Z,97599.91
2022-08-20T01:35:56.919Z,97604.75
2022-08-20T01:38:25.911Z,97605.47
2022-08-20T01:41:13.604Z,97610.75
2022-08-20T01:43:42.959Z,97606.56
2022-08-20T01:46:13.222Z,97612.00
2022-08-20T01:48:45.038Z,97619.34
2022-08-20T01:51:21.787Z,97625.34
2022-08-20T01:53:56.075Z,97628.69
2022-08-20T01:56:30.139Z,97635.66
2022-08-20T01:59:01.601Z,97637.00
2022-08-20T02:01:46.360Z,97646.63
2022-08-20T02:04:19.110Z,97655.84
2022-08-20T02:06:57.513Z,97659.84
2022-08-20T02:09:32.949Z,97663.03
2022-08-20T02:12:04.191Z,97660.28
2022-08-20T02:14:34.845Z,97656.22
2022-08-20T02:17:03.746Z,97664.47
2022-08-20T02:19:46.998Z,97662.47
2022-08-20T02:22:49.842Z,97671.25
2022-08-20T02:25:23.108Z,97668.34
2022-08-20T02:27:55.158Z,97672.22
2022-08-20T02:30:30.526Z,97673.63
2022-08-20T02:33:01.367Z,97677.97
2022-08-20T02:35:33.869Z,97684.38
2022-08-20T02:38:04.041Z,97683.06
2022-08-20T02:40:34.385Z,97689.91
2022-08-20T02:43:05.567Z,97686.25
2022-08-20T02:45:40.364Z,97687.53
2022-08-20T02:48:09.544Z,97684.63
2022-08-20T02:50:38.495Z,97693.94
2022-08-20T02:53:07.350Z,97700.47
2022-08-20T02:55:36.382Z,97702.81
2022-08-20T02:58:05.357Z,97701.09
2022-08-20T03:00:38.420Z,97707.25
2022-08-20T03:03:12.237Z,97705.69
2022-08-20T03:05:44.210Z,97712.91
2022-08-20T03:08:15.794Z,97713.56
2022-08-20T03:10:47.952Z,97723.84
2022-08-20T03:13:17.785Z,97722.75
2022-08-20T03:15:58.093Z,97732.88
2022-08-20T03:18:36.363Z,97725.47
2022-08-20T03:21:07.690Z,97736.38
2022-08-20T03:23:40.341Z,97743.94
2022-08-20T03:26:12.691Z,97743.41
2022-08-20T03:28:43.030Z,97739.09
2022-08-20T03:31:14.727Z,97745.84
2022-08-20T03:33:52.660Z,97751.50
2022-08-20T03:36:28.592Z,97748.78
2022-08-20T03:39:03.471Z,97747.91
2022-08-20T03:41:33.202Z,97734.03
2022-08-20T03:44:01.888Z,97738.66
2022-08-20T03:46:31.039Z,97742.28
2022-08-20T03:49:00.758Z,97744.78
2022-08-20T03:51:35.136Z,97746.84
2022-08-20T03:54:21.246Z,97746.09
2022-08-20T03:56:50.460Z,97751.63
2022-08-20T03:59:19.322Z,97745.03
2022-08-20T04:01:48.321Z,97741.22
2022-08-20T04:04:17.515Z,97744.47
2022-08-20T04:06:48.514Z,97742.72
2022-08-20T04:09:17.912Z,97745.44
2022-08-20T04:11:46.900Z,97748.47
2022-08-20T04:14:18.503Z,97751.56
2022-08-20T04:16:49.153Z,97741.63
2022-08-20T04:19:18.681Z,97741.53
2022-08-20T04:21:49.342Z,97753.38
2022-08-20T04:24:30.149Z,97746.31
2022-08-20T04:27:03.594Z,97747.59
2022-08-20T04:29:35.617Z,97751.47
2022-08-20T04:32:07.101Z,97745.75
2022-08-20T04:34:37.511Z,97735.97
2022-08-20T04:37:16.967Z,97736.88
2022-08-20T04:39:46.675Z,97747.91
2022-08-20T04:42:18.277Z,97751.44
2022-08-20T04:44:47.431Z,97752.94
2022-08-20T04:47:23.951Z,97755.94
2022-08-20T04:50:03.733Z,97749.97
2022-08-20T04:52:33.930Z,97762.09
2022-08-20T04:55:03.506Z,97761.97
2022-08-20T04:57:40.090Z,97762.63
2022-08-20T05:00:18.855Z,97757.72
2022-08-20T05:02:47.956Z,97762.13
2022-08-20T05:05:16.667Z,97752.94
2022-08-20T05:07:47.362Z,97751.88
2022-08-20T05:10:19.894Z,97761.25
2022-08-20T05:12:56.628Z,97762.91
2022-08-20T05:15:26.953Z,97757.75
2022-08-20T05:17:58.568Z,97768.56
2022-08-20T05:20:33.291Z,97766.31
2022-08-20T05:23:03.829Z,97766.97
2022-08-20T05:25:34.064Z,97778.00
2022-08-20T05:28:13.419Z,97770.88
2022-08-20T05:30:47.579Z,97776.53
2022-08-20T05:33:21.213Z,97767.06
2022-08-20T05:35:53.730Z,97768.06
2022-08-20T05:38:26.153Z,97773.19
2022-08-20T05:40:56.534Z,97776.22
2022-08-20T05:43:25.698Z,97775.06
2022-08-20T05:45:56.772Z,97775.88
2022-08-20T05:48:26.735Z,97776.22
2022-08-20T05:50:55.919Z,97773.38
2022-08-20T05:53:26.481Z,97770.34
2022-08-20T05:55:55.945Z,97773.19
2022-08-20T05:58:30.170Z,97775.34
2022-08-20T06:01:00.524Z,97787.00
2022-08-20T06:06:45.773Z,97775.38
2022-08-20T06:09:30.753Z,97771.88
2022-08-20T06:12:10.441Z,97775.19
2022-08-20T06:14:39.419Z,97769.72
2022-08-20T06:17:18.945Z,97778.25
2022-08-20T06:19:51.677Z,97765.28
2022-08-20T06:22:24.397Z,97765.19
2022-08-20T06:24:56.565Z,97767.09
2022-08-20T06:27:27.299Z,97761.09
2022-08-20T06:29:56.200Z,97762.75
2022-08-20T06:32:32.109Z,97760.72
2022-08-20T06:35:04.931Z,97756.03
2022-08-20T06:37:37.604Z,97758.91
2022-08-20T06:40:13.633Z,97756.88
2022-08-20T06:42:48.869Z,97758.56
2022-08-20T06:45:26.006Z,97756.22
2022-08-20T06:47:59.079Z,97746.31
2022-08-20T06:50:33.027Z,97761.13
2022-08-20T06:53:01.906Z,97755.72
2022-08-20T06:55:32.218Z,97748.66
2022-08-20T06:58:04.166Z,97747.50
2022-08-20T07:00:34.898Z,97749.22
2022-08-20T07:03:04.948Z,97743.88
2022-08-20T07:05:37.815Z,97753.06
2022-08-20T07:08:07.142Z,97737.09
2022-08-20T07:10:36.254Z,97740.28
2022-08-20T07:13:05.686Z,97738.09
2022-08-20T07:15:34.655Z,97751.09
2022-08-20T07:18:06.622Z,97744.25
2022-08-20T07:20:37.996Z,97740.78
2022-08-20T07:23:07.887Z,97752.94
2022-08-20T07:25:37.271Z,97745.38
2022-08-20T07:28:13.116Z,97748.72
2022-08-20T07:31:13.764Z,97739.09
2022-08-20T07:33:44.545Z,97738.13
2022-08-20T07:36:17.694Z,97740.59
2022-08-20T07:38:52.411Z,97738.44
2022-08-20T07:41:22.644Z,97734.28
2022-08-20T07:43:52.366Z,97727.78
2022-08-20T07:46:34.075Z,97729.97
2022-08-20T07:49:06.314Z,97733.97
2022-08-20T07:51:36.126Z,97736.47
2022-08-20T07:54:06.402Z,97728.63
2022-08-20T07:56:36.591Z,97725.63
2022-08-20T07:59:09.289Z,97727.13
2022-08-20T08:01:42.127Z,97724.31
2022-08-20T08:04:19.997Z,97725.47
2022-08-20T08:06:52.194Z,97721.47
2022-08-20T08:09:20.890Z,97715.16
2022-08-20T08:11:52.164Z,97714.81
2022-08-20T08:14:28.181Z,97710.81
2022-08-20T08:17:01.572Z,97711.16
2022-08-20T08:19:39.740Z,97716.81
2022-08-20T08:22:14.978Z,97708.66
2022-08-20T08:24:56.825Z,97714.31
2022-08-20T08:27:27.913Z,97704.81
2022-08-20T08:29:59.217Z,97700.31
2022-08-20T08:32:32.543Z,97707.00
2022-08-20T08:35:10.497Z,97699.47
2022-08-20T08:37:40.343Z,97698.50
2022-08-20T08:40:10.498Z,97699.16
2022-08-20T08:42:49.857Z,97693.22
2022-08-20T08:45:21.653Z,97689.53
2022-08-20T08:47:56.522Z,97696.19
2022-08-20T08:50:54.240Z,97691.03
2022-08-20T08:53:28.578Z,97675.19
2022-08-20T08:55:58.051Z,97673.53
2022-08-20T08:58:29.698Z,97669.88
2022-08-20T09:01:02.111Z,97670.16
2022-08-20T09:03:39.368Z,97659.88
2022-08-20T09:06:09.153Z,97661.22
2022-08-20T09:08:49.558Z,97660.22
2022-08-20T09:11:20.519Z,97651.34
2022-08-20T09:13:53.509Z,97654.78
2022-08-20T09:16:26.159Z,97645.66
2022-08-20T09:19:00.448Z,97644.78
2022-08-20T09:21:29.795Z,97643.94
2022-08-20T09:23:59.324Z,97642.66
2022-08-20T09:26:29.155Z,97637.91
2022-08-20T09:28:58.337Z,97632.22
2022-08-20T09:31:28.811Z,97632.44
2022-08-20T09:33:59.355Z,97626.81
2022-08-20T09:36:32.721Z,97622.69
2022-08-20T09:39:03.498Z,97619.38
2022-08-20T09:41:34.672Z,97612.19
2022-08-20T09:44:04.034Z,97616.16
2022-08-20T09:46:33.015Z,97616.84
2022-08-20T09:49:02.048Z,97612.78
2022-08-20T09:51:38.397Z,97608.44
2022-08-20T09:54:07.952Z,97610.84
2022-08-20T09:56:37.309Z,97602.44
2022-08-20T09:59:06.979Z,97595.81
2022-08-20T10:01:36.311Z,97587.81
2022-08-20T10:04:05.554Z,97596.28
2022-08-20T10:06:41.356Z,97602.16
2022-08-20T10:09:10.545Z,97597.25
2022-08-20T10:11:39.410Z,97583.72
2022-08-20T10:14:10.634Z,97581.41
2022-08-20T10:16:39.450Z,97585.06
2022-08-20T10:19:08.280Z,97577.38
2022-08-20T10:21:38.992Z,97569.31
2022-08-20T10:24:08.408Z,97564.00
2022-08-20T10:26:39.685Z,97570.28
2022-08-20T10:29:08.945Z,97565.75
2022-08-20T10:31:59.995Z,97567.41
2022-08-20T10:34:29.172Z,97560.06
2022-08-20T10:36:59.892Z,97565.53
2022-08-20T10:39:29.057Z,97566.41
2022-08-20T10:42:00.740Z,97569.13
2022-08-20T10:44:29.676Z,97571.31
2022-08-20T10:46:58.732Z,97567.69
2022-08-20T10:49:46.098Z,97577.06
2022-08-20T10:52:33.526Z,97576.47
2022-08-20T10:55:05.144Z,97563.34
2022-08-20T10:57:37.349Z,97560.19
2022-08-20T11:00:08.938Z,97555.06
2022-08-20T11:02:38.376Z,97550.09
2022-08-20T11:05:08.257Z,97540.13
2022-08-20T11:10:29.160Z,97539.25
2022-08-20T11:13:04.123Z,97539.50
2022-08-20T11:15:35.580Z,97535.31
2022-08-20T11:18:04.889Z,97540.88
2022-08-20T11:20:34.618Z,97538.66
2022-08-20T11:23:03.893Z,97532.84
2022-08-20T11:25:33.451Z,97543.16
2022-08-20T11:28:02.624Z,97539.22
2022-08-20T11:30:34.879Z,97542.25
2022-08-20T11:33:04.258Z,97539.03
2022-08-20T11:35:49.484Z,97548.09
2022-08-20T11:38:20.096Z,97542.13
2022-08-20T11:40:49.161Z,97539.47
2022-08-20T11:43:18.469Z,97538.94
2022-08-20T11:45:51.251Z,97535.50
2022-08-20T11:48:20.552Z,97536.63
2022-08-20T11:50:50.050Z,97533.03
2022-08-20T11:53:19.518Z,97520.75
2022-08-20T11:55:49.166Z,97526.50
2022-08-20T11:58:18.910Z,97528.06
2022-08-20T12:00:48.139Z,97530.00
2022-08-20T12:03:17.304Z,97524.63
2022-08-20T12:05:47.872Z,97520.97
2022-08-20T12:08:26.704Z,97525.66
2022-08-20T12:11:03.731Z,97518.91
2022-08-20T12:13:47.979Z,97527.56
2022-08-20T12:16:19.933Z,97519.94
2022-08-20T12:18:50.386Z,97520.47
2022-08-20T12:21:19.529Z,97515.09
2022-08-20T12:23:48.514Z,97524.84
2022-08-20T12:26:17.831Z,97525.38
2022-08-20T12:28:46.829Z,97527.03
2022-08-20T12:31:15.919Z,97522.31
2022-08-20T12:33:45.078Z,97519.50
2022-08-20T12:36:14.069Z,97522.03
2022-08-20T12:38:43.304Z,97526.19
2022-08-20T12:41:12.488Z,97522.44
2022-08-20T12:43:41.351Z,97527.72
2022-08-20T12:46:10.461Z,97517.88
2022-08-20T12:48:39.373Z,97525.25
2022-08-20T12:51:08.550Z,97524.56
2022-08-20T12:53:37.525Z,97526.81
2022-08-20T12:56:06.885Z,97528.59
2022-08-20T12:58:36.095Z,97526.94
2022-08-20T13:01:05.099Z,97527.72
2022-08-20T13:03:34.247Z,97535.50
2022-08-20T13:06:12.429Z,97527.97
2022-08-20T13:08:41.262Z,97532.44
2022-08-20T13:11:10.205Z,97540.53
2022-08-20T13:13:39.363Z,97545.03
2022-08-20T13:16:08.462Z,97548.13
2022-08-20T13:18:37.582Z,97554.53
2022-08-20T13:21:06.855Z,97549.09
2022-08-20T13:23:35.701Z,97547.16
2022-08-20T13:26:06.340Z,97548.41
2022-08-20T13:28:35.488Z,97540.59
2022-08-20T13:31:04.557Z,97541.81
2022-08-20T13:33:34.078Z,97543.78
2022-08-20T13:36:03.142Z,97547.84
2022-08-20T13:38:32.847Z,97548.53
2022-08-20T13:41:01.944Z,97547.31
2022-08-20T13:43:31.406Z,97554.53
2022-08-20T13:46:00.307Z,97554.41
2022-08-20T13:48:29.276Z,97562.03
2022-08-20T13:50:58.945Z,97570.25
2022-08-20T13:53:28.280Z,97577.22
2022-08-20T13:55:57.361Z,97580.69
2022-08-20T13:58:26.478Z,97575.66
2022-08-20T14:00:55.513Z,97575.16
2022-08-20T14:03:25.277Z,97577.06
2022-08-20T14:05:54.954Z,97585.00
2022-08-20T14:08:25.137Z,97590.00
2022-08-20T14:10:54.273Z,97590.84
2022-08-20T14:13:25.727Z,97591.00
2022-08-20T14:15:55.245Z,97598.78
2022-08-20T14:18:24.640Z,97603.78
2022-08-20T14:20:53.459Z,97596.97
2022-08-20T14:23:22.149Z,97597.38
2022-08-20T14:25:52.237Z,97607.69
2022-08-20T14:28:24.180Z,97608.22
2022-08-20T14:30:53.948Z,97610.47
2022-08-20T14:33:24.706Z,97610.31
2022-08-20T14:35:54.169Z,97606.72
2022-08-20T14:38:23.313Z,97603.78
2022-08-20T14:40:52.185Z,97611.56
2022-08-20T14:43:21.232Z,97617.97
2022-08-20T14:45:50.143Z,97618.53
2022-08-20T14:48:19.223Z,97623.13
2022-08-20T14:50:48.312Z,97622.13
2022-08-20T14:53:17.279Z,97618.81
2022-08-20T14:55:46.384Z,97618.53
2022-08-20T14:58:17.922Z,97625.22
2022-08-20T15:00:47.625Z,97630.50
2022-08-20T15:03:16.624Z,97631.47
2022-08-20T15:05:45.491Z,97634.38
2022-08-20T15:08:14.373Z,97637.47
2022-08-20T15:10:44.477Z,97634.66
2022-08-20T15:13:13.461Z,97648.56
2022-08-20T15:15:42.697Z,97644.97
2022-08-20T15:18:11.576Z,97649.28
2022-08-20T15:20:40.464Z,97656.25
2022-08-20T15:23:09.614Z,97659.97
2022-08-20T15:25:38.799Z,97673.63
2022-08-20T15:28:10.912Z,97676.38
2022-08-20T15:30:42.143Z,97677.22
2022-08-20T15:33:11.878Z,97682.94
2022-08-20T15:35:40.823Z,97681.94
2022-08-20T15:38:09.775Z,97685.31
2022-08-20T15:40:38.852Z,97686.28
2022-08-20T15:43:07.925Z,97692.25
2022-08-20T15:45:37.822Z,97685.59
2022-08-20T15:48:22.199Z,97701.19
2022-08-20T15:50:57.764Z,97707.41
2022-08-20T15:53:39.192Z,97703.41
2022-08-20T15:56:26.372Z,97706.88
2022-08-20T15:59:13.168Z,97713.28
2022-08-20T16:02:03.926Z,97714.50
2022-08-20T16:04:53.814Z,97710.38
2022-08-20T16:07:28.950Z,97704.09
2022-08-20T16:10:17.987Z,97697.31
2022-08-20T16:12:53.639Z,97699.22
2022-08-20T16:15:30.959Z,97703.09
2022-08-20T16:18:25.859Z,97699.50
2022-08-20T16:20:57.383Z,97704.22
2022-08-20T16:23:36.526Z,97696.28
2022-08-20T16:26:14.295Z,97698.94
2022-08-20T16:29:03.578Z,97707.53
2022-08-20T16:31:41.528Z,97710.06
2022-08-20T16:34:34.649Z,97704.22
2022-08-20T16:37:11.815Z,97706.72
2022-08-20T16:39:50.351Z,97700.88
2022-08-20T16:42:25.707Z,97708.66
2022-08-20T16:44:58.876Z,97711.75
2022-08-20T16:47:31.333Z,97703.25
2022-08-20T16:50:02.961Z,97712.41
2022-08-20T16:52:32.057Z,97713.09
2022-08-20T16:55:01.051Z,97711.41
2022-08-20T16:57:30.985Z,97705.88
2022-08-20T17:00:26.316Z,97709.50
2022-08-20T17:03:04.725Z,97714.03
2022-08-20T17:05:49.812Z,97720.34
2022-08-20T17:08:36.021Z,97715.63
2022-08-20T17:11:15.751Z,97709.63
2022-08-20T17:13:49.937Z,97710.47
2022-08-20T17:16:21.379Z,97721.13
2022-08-20T17:18:55.425Z,97716.44
2022-08-20T17:21:36.452Z,97711.56
2022-08-20T17:24:22.088Z,97711.69
2022-08-20T17:27:00.909Z,97713.09
2022-08-20T17:29:33.812Z,97713.09
2022-08-20T17:32:17.795Z,97711.44
2022-08-20T17:34:54.644Z,97713.53
2022-08-20T17:37:28.114Z,97708.75
2022-08-20T17:40:12.757Z,97702.69
2022-08-20T17:43:02.414Z,97701.13
2022-08-20T17:45:44.035Z,97698.91
2022-08-20T17:48:21.184Z,97704.75
2022-08-20T17:50:51.550Z,97705.50
2022-08-20T17:53:28.049Z,97705.88
2022-08-20T17:56:04.297Z,97703.75
2022-08-20T17:58:54.258Z,97703.47
2022-08-20T18:01:25.342Z,97696.63
2022-08-20T18:03:54.700Z,97704.53
2022-08-20T18:06:48.879Z,97703.34
2022-08-20T18:09:22.794Z,97711.88
2022-08-20T18:12:04.477Z,97700.78
2022-08-20T18:14:54.639Z,97702.44
2022-08-20T18:17:55.486Z,97697.59
2022-08-20T18:20:24.836Z,97693.56
2022-08-20T18:23:04.653Z,97694.94
2022-08-20T18:25:43.681Z,97692.84
2022-08-20T18:28:42.265Z,97697.75
2022-08-20T18:31:26.483Z,97693.69
2022-08-20T18:33:56.506Z,97687.97
2022-08-20T18:36:31.175Z,97688.53
2022-08-20T18:39:05.678Z,97681.00
2022-08-20T18:41:38.085Z,97684.91
2022-08-20T18:44:09.118Z,97690.22
2022-08-20T18:46:51.500Z,97694.59
2022-08-20T18:49:30.886Z,97705.19
2022-08-20T18:52:10.094Z,97700.59
2022-08-20T18:54:42.190Z,97698.22
2022-08-20T18:57:25.043Z,97705.19
2022-08-20T19:00:13.419Z,97707.41
2022-08-20T19:02:59.112Z,97706.75
2022-08-20T19:05:35.885Z,97699.63
2022-08-20T19:08:06.915Z,97699.03
2022-08-20T19:10:58.023Z,97698.00
2022-08-20T19:13:30.196Z,97699.50
2022-08-20T19:16:10.740Z,97697.53
2022-08-20T19:18:48.505Z,97701.69
2022-08-20T19:21:20.467Z,97703.72
2022-08-20T19:23:52.987Z,97702.94
2022-08-20T19:26:25.798Z,97707.50
2022-08-20T19:29:00.809Z,97701.97
2022-08-20T19:31:34.289Z,97701.53
2022-08-20T19:34:20.339Z,97700.13
2022-08-20T19:36:57.615Z,97701.81
2022-08-20T19:39:28.432Z,97700.78
2022-08-20T19:42:03.112Z,97691.22
2022-08-20T19:44:39.322Z,97687.47
2022-08-20T19:47:19.842Z,97692.47
2022-08-20T19:50:23.276Z,97687.38
2022-08-20T19:53:28.811Z,97692.38
2022-08-20T19:56:11.735Z,97678.75
2022-08-20T19:58:41.332Z,97680.41
2022-08-20T20:01:19.092Z,97677.69
2022-08-20T20:04:04.331Z,97684.88
2022-08-20T20:06:42.696Z,97676.41
2022-08-20T20:09:30.423Z,97684.59
2022-08-20T20:12:06.123Z,97683.53
2022-08-20T20:14:37.181Z,97672.53
2022-08-20T20:17:08.684Z,97676.69
2022-08-20T20:19:57.849Z,97672.03
2022-08-20T20:22:34.946Z,97676.47
2022-08-20T20:25:23.151Z,97675.94
2022-08-20T20:27:58.560Z,97680.31
2022-08-20T20:30:31.455Z,97680.59
2022-08-20T20:33:11.515Z,97678.91
2022-08-20T20:35:41.140Z,97667.47
2022-08-20T20:38:15.735Z,97666.81
2022-08-20T20:40:50.867Z,97671.84
2022-08-20T20:43:38.263Z,97658.94
2022-08-20T20:46:24.440Z,97663.75
2022-08-20T20:49:02.003Z,97665.53
2022-08-20T20:51:34.995Z,97669.41
2022-08-20T20:54:09.074Z,97663.16
2022-08-20T20:56:41.452Z,97664.16
2022-08-20T20:59:10.739Z,97665.66
2022-08-20T21:01:49.054Z,97664.00
2022-08-20T21:04:24.684Z,97662.47
2022-08-20T21:06:55.673Z,97657.03
2022-08-20T21:09:26.605Z,97657.31
2022-08-20T21:11:55.693Z,97658.00
2022-08-20T21:14:24.507Z,97657.84
2022-08-20T21:16:55.128Z,97654.50
2022-08-20T21:19:24.368Z,97649.31
2022-08-20T21:21:53.213Z,97642.44
2022-08-20T21:24:22.607Z,97637.16
2022-08-20T21:26:53.830Z,97636.34
2022-08-20T21:29:32.725Z,97620.28
2022-08-20T21:32:02.007Z,97628.25
2022-08-20T21:34:31.119Z,97627.88
2022-08-20T21:37:00.123Z,97626.34
2022-08-20T21:39:29.630Z,97624.38
2022-08-20T21:42:03.263Z,97622.75
2022-08-20T21:44:33.627Z,97621.47
2022-08-20T21:47:03.250Z,97623.16
2022-08-20T21:49:33.100Z,97620.78
2022-08-20T21:52:02.427Z,97608.22
2022-08-20T21:54:31.563Z,97609.91
2022-08-20T21:57:10.415Z,97619.78
2022-08-20T21:59:40.361Z,97612.69
2022-08-20T22:02:10.272Z,97607.69
2022-08-20T22:04:39.155Z,97606.53
2022-08-20T22:07:08.305Z,97600.69
2022-08-20T22:09:39.570Z,97597.25
2022-08-20T22:12:17.146Z,97592.81
2022-08-20T22:14:47.030Z,97597.13
2022-08-20T22:17:16.395Z,97593.81
2022-08-20T22:19:45.906Z,97597.13
2022-08-20T22:22:16.604Z,97593.13
2022-08-20T22:24:46.754Z,97593.50
2022-08-20T22:27:16.376Z,97599.66
2022-08-20T22:29:45.507Z,97595.88
2022-08-20T22:32:15.616Z,97596.84
2022-08-20T22:34:46.616Z,97590.06
2022-08-20T22:37:16.432Z,97584.66
2022-08-20T22:39:45.617Z,97583.78
2022-08-20T22:42:14.916Z,97588.50
2022-08-20T22:44:43.637Z,97589.56
2022-08-20T22:47:15.711Z,97591.16
2022-08-20T22:49:45.608Z,97579.25
2022-08-20T22:52:14.478Z,97585.69
2022-08-20T22:54:44.759Z,97587.66
2022-08-20T22:57:15.683Z,97592.34
2022-08-20T22:59:52.882Z,97587.91
2022-08-20T23:02:24.515Z,97592.47
2022-08-20T23:04:53.733Z,97599.16
2022-08-20T23:07:22.790Z,97592.34
2022-08-20T23:09:51.491Z,97588.69
2022-08-20T23:12:20.772Z,97586.72
2022-08-20T23:14:49.427Z,97581.72
2022-08-20T23:17:20.167Z,97590.31
2022-08-20T23:19:50.393Z,97582.31
2022-08-20T23:22:20.452Z,97590.59
2022-08-20T23:24:49.923Z,97590.59
2022-08-20T23:27:21.740Z,97590.31
2022-08-20T23:29:50.673Z,97583.34
2022-08-20T23:32:19.690Z,97585.31
2022-08-20T23:34:48.744Z,97577.78
2022-08-20T23:37:21.866Z,97577.69
2022-08-20T23:39:51.013Z,97575.56
2022-08-20T23:42:20.373Z,97573.63
2022-08-20T23:44:49.314Z,97577.25
2022-08-20T23:47:22.727Z,97576.44
2022-08-20T23:49:52.441Z,97574.09
2022-08-20T23:52:21.617Z,97569.78
2022-08-20T23:54:51.134Z,97569.78
2022-08-20T23:57:21.043Z,97566.44
2022-08-20T23:59:53.049Z,97562.53
